Gulden Leeuw — PCBH — position and weather

sailwx.info

Track history (hours):
 
Tides and Currents Weather Stations Pressure Air Temp Water Temp Dewpoint Dewpoint Depression Visibility Wind Speed Wind Dir Waves Ship Positions

Gulden Leeuw

Last reported at 2017-Apr-24 02:08 UTC. Time now 2017-May-29 00:14 UTC.
Position N 17°32' W 066°52'.
Warning: this ship's position is 34 days out of date.

Length 57 m; draft 4.2 m.

Type: Sailing vessel. MMSI: 246709000.

Date/timePositionNaut miles runAvg speedWind from/ knotsBaromVisibWave heightAir tempDewpointWater temp
2017-Apr-24 02:08N 17°32' W 066°52'1 5.7
2017-Apr-24 01:59N 17°32' W 066°51'3 5.6
2017-Apr-24 01:30N 17°32' W 066°48'3 6.1
2017-Apr-24 01:00N 17°33' W 066°45'3 6.7
2017-Apr-24 00:30N 17°34' W 066°42'11 6.1
2017-Apr-23 22:40N 17°37' W 066°31'8 5.7
2017-Apr-23 21:11N 17°40' W 066°22'1 5.6
2017-Apr-23 20:56N 17°40' W 066°21'3 6.0
2017-Apr-23 20:30N 17°41' W 066°18'3 5.3
2017-Apr-23 19:54N 17°42' W 066°15'2 5.5
2017-Apr-23 19:29N 17°42' W 066°13'3 5.2
2017-Apr-23 18:57N 17°42' W 066°10'3 6.4
2017-Apr-23 18:29N 17°40' W 066°07'3 5.8
2017-Apr-23 17:59N 17°39' W 066°05'3 5.4
2017-Apr-23 17:27N 17°37' W 066°02'176 6.9
2017-Apr-22 15:59N 16°17' W 063°19'90 5.5
2017-Apr-21 23:37N 15°57' W 061°48'5 0.4
2017-Apr-21 09:59N 15°54' W 061°43'12 2.7
2017-Apr-21 05:36N 15°46' W 061°34'0 3.0
2017-Apr-21 05:30N 15°46' W 061°33'  
Track history (hours):
 
Tides and Currents Weather Stations Pressure Air Temp Water Temp Dewpoint Dewpoint Depression Visibility Wind Speed Wind Dir Waves Ship Positions

Gulden Leeuw

Last reported at 2017-Apr-24 02:08 UTC. Time now 2017-May-29 00:14 UTC.
Position N 17°32' W 066°52'.
Warning: this ship's position is 34 days out of date.

Length 57 m; draft 4.2 m.

Type: Sailing vessel. MMSI: 246709000.

Date/timePositionNaut miles runAvg speedWind from/ knotsBaromVisibWave heightAir tempDewpointWater temp
2017-Apr-24 02:08N 17°32' W 066°52'1 5.7
2017-Apr-24 01:59N 17°32' W 066°51'3 5.6
2017-Apr-24 01:30N 17°32' W 066°48'3 6.1
2017-Apr-24 01:00N 17°33' W 066°45'3 6.7
2017-Apr-24 00:30N 17°34' W 066°42'11 6.1
2017-Apr-23 22:40N 17°37' W 066°31'8 5.7
2017-Apr-23 21:11N 17°40' W 066°22'1 5.6
2017-Apr-23 20:56N 17°40' W 066°21'3 6.0
2017-Apr-23 20:30N 17°41' W 066°18'3 5.3
2017-Apr-23 19:54N 17°42' W 066°15'2 5.5
2017-Apr-23 19:29N 17°42' W 066°13'3 5.2
2017-Apr-23 18:57N 17°42' W 066°10'3 6.4
2017-Apr-23 18:29N 17°40' W 066°07'3 5.8
2017-Apr-23 17:59N 17°39' W 066°05'3 5.4
2017-Apr-23 17:27N 17°37' W 066°02'176 6.9
2017-Apr-22 15:59N 16°17' W 063°19'90 5.5
2017-Apr-21 23:37N 15°57' W 061°48'5 0.4
2017-Apr-21 09:59N 15°54' W 061°43'12 2.7
2017-Apr-21 05:36N 15°46' W 061°34'0 3.0
2017-Apr-21 05:30N 15°46' W 061°33'  

Dump ship's entire track history